Time;durP1;ratioP1;P1;durP2;ratioP2;P2;SDS_P1;SDS_P2;PMS_P1;PMS_P2;Temp;Humidity;BMP_temperature;BMP_pressure;BME280_temperature;BME280_humidity;BME280_pressure;Samples;Min_cycle;Max_cycle;Signal;HPM_P1;HPM_P2
2023/03/21 00:00:57;;;;;;;8.05;3.75;;;;;;;4.69;56.42;99066.25;5085292;28;20120;-37
2023/03/21 00:03:24;;;;;;;12.07;4.95;;;;;;;4.76;56.18;99079.00;5078763;28;20508;-37
2023/03/21 00:05:52;;;;;;;14.18;4.88;;;;;;;4.74;56.37;99068.72;5066952;28;20131;-37
2023/03/21 00:08:19;;;;;;;7.07;3.60;;;;;;;4.60;56.43;99039.84;5085355;28;20139;-37
2023/03/21 00:10:45;;;;;;;12.27;3.25;;;;;;;4.60;56.11;99032.97;5079783;28;20036;-36
2023/03/21 00:13:12;;;;;;;10.50;3.03;;;;;;;4.72;56.48;99065.31;5086328;28;20040;-37
2023/03/21 00:15:48;;;;;;;5.20;2.65;;;;;;;4.63;56.39;99062.94;5078213;28;20036;-37
2023/03/21 00:18:16;;;;;;;15.43;4.63;;;;;;;4.58;56.79;99057.91;5081384;28;20503;-36
2023/03/21 00:20:45;;;;;;;13.77;4.20;;;;;;;4.57;56.63;99066.50;5068801;28;20039;-37
2023/03/21 00:23:11;;;;;;;10.85;3.92;;;;;;;4.59;56.85;99056.19;5071401;28;20032;-37
2023/03/21 00:25:37;;;;;;;9.57;3.15;;;;;;;4.64;56.53;99047.47;5081239;28;20532;-37
2023/03/21 00:28:03;;;;;;;10.38;3.97;;;;;;;4.62;56.81;99051.81;5097469;28;20591;-36
2023/03/21 00:30:29;;;;;;;11.98;3.78;;;;;;;4.62;56.89;99044.06;5090559;28;20047;-36
2023/03/21 00:32:55;;;;;;;10.82;4.43;;;;;;;4.47;56.97;99021.22;5073813;28;20535;-39
2023/03/21 00:35:21;;;;;;;9.13;4.47;;;;;;;4.59;57.11;99039.00;5065912;28;20060;-37
2023/03/21 00:37:47;;;;;;;8.93;3.50;;;;;;;4.39;57.20;99012.84;5078118;28;20044;-38
2023/03/21 00:40:13;;;;;;;12.80;3.83;;;;;;;4.55;57.41;99033.97;5069922;28;20067;-38
2023/03/21 00:42:39;;;;;;;10.40;4.18;;;;;;;4.53;57.19;99023.69;5077179;28;20044;-37
2023/03/21 00:45:09;;;;;;;6.45;3.50;;;;;;;4.47;57.42;99003.22;5079148;28;20032;-38
2023/03/21 00:47:35;;;;;;;;;;;;;;;4.64;57.43;99021.72;5069723;28;20040;-36
2023/03/21 00:50:01;;;;;;;14.75;6.50;;;;;;;4.65;57.55;99018.28;5068870;28;19920;-37
2023/03/21 00:52:27;;;;;;;10.35;3.83;;;;;;;4.60;57.53;99025.25;5087789;28;20032;-36
2023/03/21 00:54:53;;;;;;;10.98;3.90;;;;;;;4.61;57.29;99020.94;5086414;28;20089;-37
2023/03/21 00:57:19;;;;;;;11.43;4.13;;;;;;;4.62;57.43;99027.78;5090432;28;20128;-36
2023/03/21 00:59:45;;;;;;;10.20;4.78;;;;;;;4.65;57.56;99013.13;5090281;28;20108;-38
2023/03/21 01:02:21;;;;;;;7.95;3.88;;;;;;;4.71;57.23;99017.28;5090137;28;20050;-37
2023/03/21 01:04:48;;;;;;;11.10;4.80;;;;;;;4.71;57.68;99016.47;5082994;28;20126;-38
2023/03/21 01:07:14;;;;;;;10.90;3.85;;;;;;;4.71;57.22;99009.56;5082979;28;20046;-37
2023/03/21 01:09:40;;;;;;;10.75;3.95;;;;;;;4.70;57.29;99018.19;5090345;28;20135;-36
2023/03/21 01:12:06;;;;;;;7.43;3.45;;;;;;;4.79;57.52;99017.97;5091118;28;20475;-38
2023/03/21 01:14:32;;;;;;;8.07;3.15;;;;;;;4.85;57.34;99014.44;5089957;28;20044;-38
2023/03/21 01:16:58;;;;;;;8.52;3.33;;;;;;;4.72;57.42;99012.97;5103930;28;20035;-37
2023/03/21 01:19:27;;;;;;;11.25;3.88;;;;;;;4.63;57.51;99012.31;5079803;28;20530;-36
2023/03/21 01:21:53;;;;;;;11.80;4.70;;;;;;;4.60;57.94;99007.25;5076001;28;20120;-36
2023/03/21 01:24:19;;;;;;;14.68;5.15;;;;;;;4.63;57.83;99002.00;5086048;28;20430;-37
2023/03/21 01:26:46;;;;;;;12.52;5.18;;;;;;;4.63;57.76;98998.59;5088487;28;20032;-38
2023/03/21 01:29:12;;;;;;;12.23;4.57;;;;;;;4.57;58.06;98997.00;5085111;28;20040;-37
2023/03/21 01:31:38;;;;;;;9.43;3.10;;;;;;;4.56;58.14;99000.44;5087945;28;20044;-36
2023/03/21 01:34:06;;;;;;;9.60;3.83;;;;;;;4.39;58.45;98974.22;5079307;28;20047;-37
2023/03/21 01:36:32;;;;;;;8.25;3.55;;;;;;;4.52;58.28;98995.38;5069979;28;20047;-38
2023/03/21 01:39:05;;;;;;;13.82;3.70;;;;;;;4.55;58.23;98995.34;5089599;28;20052;-36
2023/03/21 01:41:35;;;;;;;11.27;4.97;;;;;;;4.55;58.60;98996.16;5088453;28;20515;-36
2023/03/21 01:44:01;;;;;;;;;;;;;;;4.53;58.28;98989.38;5092363;28;20107;-35
2023/03/21 01:46:51;;;;;;;5.80;3.75;;;;;;;4.52;58.68;98990.25;5103207;28;20360;-36
2023/03/21 01:49:37;;;;;;;13.93;4.35;;;;;;;4.49;58.25;98982.59;5070431;28;20076;-36
2023/03/21 01:52:17;;;;;;;10.65;4.80;;;;;;;4.57;58.19;98993.56;5068030;28;20042;-35
2023/03/21 01:54:46;;;;;;;12.73;4.45;;;;;;;4.39;58.12;98963.09;5060902;28;20044;-36
2023/03/21 01:57:17;;;;;;;12.15;4.10;;;;;;;4.62;58.28;98995.16;5088752;28;20040;-36
2023/03/21 01:59:49;;;;;;;8.88;4.22;;;;;;;4.42;57.96;98947.56;5054704;28;20036;-36
2023/03/21 02:02:36;;;;;;;8.20;3.65;;;;;;;4.55;58.26;98982.47;5083426;28;20157;-36
2023/03/21 02:05:54;;;;;;;6.97;3.75;;;;;;;4.55;57.96;98995.34;5072362;28;20047;-37
2023/03/21 02:08:22;;;;;;;8.85;3.45;;;;;;;4.47;58.17;98984.34;5081638;28;20146;-38
2023/03/21 02:10:50;;;;;;;8.80;3.70;;;;;;;4.34;58.41;98957.19;5105075;28;20055;-37
2023/03/21 02:13:29;;;;;;;8.85;3.60;;;;;;;4.58;57.91;98987.53;5083778;28;20089;-37
2023/03/21 02:16:05;;;;;;;6.95;3.40;;;;;;;4.56;57.90;98979.84;5068668;28;20050;-36
2023/03/21 02:18:46;;;;;;;10.00;3.85;;;;;;;4.60;57.81;98983.22;5085029;28;20055;-37
2023/03/21 02:21:32;;;;;;;6.88;3.28;;;;;;;4.55;57.68;98975.56;5070793;28;20060;-36
2023/03/21 02:24:44;;;;;;;8.20;3.83;;;;;;;4.61;57.66;98977.16;5087548;28;20397;-36
2023/03/21 02:27:20;;;;;;;6.53;3.15;;;;;;;4.56;57.34;98974.69;5069510;28;20044;-36
2023/03/21 02:30:03;;;;;;;8.73;3.67;;;;;;;4.54;57.16;98968.75;5086404;28;20439;-36
2023/03/21 02:32:55;;;;;;;8.30;3.63;;;;;;;4.54;57.60;98970.47;5081650;28;20154;-38
2023/03/21 02:35:27;;;;;;;9.32;3.70;;;;;;;4.56;57.36;98968.69;5067286;28;20047;-36
2023/03/21 02:38:20;;;;;;;6.22;3.25;;;;;;;4.57;57.29;98963.53;5070210;28;20758;-36
2023/03/21 02:40:52;;;;;;;9.18;3.88;;;;;;;4.55;56.96;98962.69;5063643;28;20135;-38
2023/03/21 02:43:31;;;;;;;9.15;3.83;;;;;;;4.57;57.38;98962.69;5058269;28;20040;-37
2023/03/21 02:46:01;;;;;;;7.55;3.70;;;;;;;4.51;57.26;98963.66;5070942;28;20489;-37
2023/03/21 02:48:35;;;;;;;10.45;3.88;;;;;;;4.48;57.32;98960.31;5054016;28;20044;-37
2023/03/21 02:51:01;;;;;;;7.18;3.70;;;;;;;4.35;57.07;98944.28;5084680;28;20045;-36
2023/03/21 02:53:38;;;;;;;11.77;3.95;;;;;;;4.51;56.98;98952.50;5057413;28;20047;-38
2023/03/21 02:56:09;;;;;;;8.25;3.60;;;;;;;4.13;57.21;98907.88;5088077;28;20104;-36
2023/03/21 02:58:41;;;;;;;6.30;3.30;;;;;;;4.35;57.15;98966.56;5069436;28;20044;-37
2023/03/21 03:01:08;;;;;;;7.63;2.70;;;;;;;4.26;57.76;98955.63;5060975;28;20083;-37
2023/03/21 03:04:01;;;;;;;7.57;3.58;;;;;;;4.29;57.28;98954.72;5055407;28;20048;-38
2023/03/21 03:06:43;;;;;;;10.13;3.72;;;;;;;4.29;57.45;98948.72;5084049;28;20040;-37
2023/03/21 03:09:26;;;;;;;8.85;3.50;;;;;;;4.31;57.41;98957.25;5067741;28;20047;-36
2023/03/21 03:12:08;;;;;;;8.75;3.75;;;;;;;4.30;57.46;98945.25;5067415;28;20048;-36
2023/03/21 03:14:53;;;;;;;11.52;4.07;;;;;;;4.38;57.26;98948.53;5084413;28;20068;-36
2023/03/21 03:17:38;;;;;;;10.30;3.00;;;;;;;4.39;56.81;98937.34;5066738;28;20196;-37
2023/03/21 03:20:27;;;;;;;6.32;3.10;;;;;;;4.39;57.11;98937.34;5052171;28;20043;-37
2023/03/21 03:22:55;;;;;;;5.50;3.03;;;;;;;4.51;57.01;98932.78;5081305;28;20507;-36
2023/03/21 03:25:48;;;;;;;11.85;3.40;;;;;;;4.38;56.52;98908.19;5065269;28;20515;-37
2023/03/21 03:28:18;;;;;;;7.88;3.25;;;;;;;4.32;56.51;98898.03;5095296;28;20086;-36
2023/03/21 03:30:45;;;;;;;;;;;;;;;4.54;56.50;98929.31;5084116;28;20575;-37
2023/03/21 03:33:15;;;;;;;8.60;3.50;;;;;;;4.49;56.49;98908.81;5049154;28;19920;-37
2023/03/21 03:35:43;;;;;;;8.23;3.40;;;;;;;4.59;56.08;98919.75;5090015;28;20093;-37
2023/03/21 03:38:10;;;;;;;6.80;3.45;;;;;;;4.66;56.16;98932.41;5068298;28;20035;-36
2023/03/21 03:40:40;;;;;;;11.02;3.45;;;;;;;4.66;56.24;98932.41;5065292;28;20044;-37
2023/03/21 03:43:33;;;;;;;7.38;3.10;;;;;;;4.57;56.40;98929.22;5058411;28;20082;-37
2023/03/21 03:46:09;;;;;;;6.80;3.25;;;;;;;4.53;56.51;98930.19;5070479;28;20067;-38
2023/03/21 03:48:45;;;;;;;10.82;3.60;;;;;;;4.49;56.43;98931.13;5068039;28;20047;-37
2023/03/21 03:51:24;;;;;;;6.80;3.58;;;;;;;4.49;56.97;98921.69;5070546;28;20048;-39
2023/03/21 03:54:12;;;;;;;8.55;3.80;;;;;;;4.48;56.57;98924.28;5072427;28;20043;-38
2023/03/21 03:56:39;;;;;;;10.13;3.97;;;;;;;4.24;56.75;98890.47;5082432;28;20032;-38
2023/03/21 03:59:06;;;;;;;10.77;4.15;;;;;;;4.29;56.44;98898.13;5069265;28;20143;-38
2023/03/21 04:01:52;;;;;;;9.23;3.75;;;;;;;4.50;56.42;98917.38;5084417;28;20036;-36
2023/03/21 04:04:21;;;;;;;9.15;3.72;;;;;;;4.45;56.49;98914.06;5075105;28;20033;-38
2023/03/21 04:06:52;;;;;;;12.02;4.10;;;;;;;4.50;56.23;98917.38;5082726;28;20040;-36
2023/03/21 04:09:21;;;;;;;11.40;3.78;;;;;;;4.40;56.26;98888.41;5096752;28;20126;-38
2023/03/21 04:11:48;;;;;;;6.93;3.58;;;;;;;4.56;56.05;98910.34;5081466;28;20105;-37
2023/03/21 04:14:14;;;;;;;9.10;4.10;;;;;;;4.60;56.02;98911.16;5071599;28;20101;-36
2023/03/21 04:16:41;;;;;;;7.93;3.70;;;;;;;4.67;55.90;98910.09;5084644;28;20094;-36
2023/03/21 04:19:08;;;;;;;7.43;3.63;;;;;;;4.46;55.67;98877.13;5083367;28;20504;-37
2023/03/21 04:21:35;;;;;;;11.45;3.63;;;;;;;4.68;55.76;98909.22;5066328;28;20047;-37
2023/03/21 04:24:01;;;;;;;13.52;4.72;;;;;;;4.64;55.46;98916.19;5085529;28;20415;-37
2023/03/21 04:26:32;;;;;;;13.23;3.67;;;;;;;4.63;55.32;98905.91;5103664;28;20036;-36
2023/03/21 04:29:17;;;;;;;7.15;3.72;;;;;;;4.62;55.25;98910.22;5081035;28;20504;-36
2023/03/21 04:32:16;;;;;;;10.47;4.13;;;;;;;4.24;55.50;98862.19;5085809;27;20063;-38
2023/03/21 04:34:48;;;;;;;9.52;3.85;;;;;;;4.63;55.20;98916.22;5079490;28;20469;-37
2023/03/21 04:37:17;;;;;;;9.15;3.78;;;;;;;4.60;55.45;98914.56;5067926;28;20052;-37
2023/03/21 04:39:47;;;;;;;6.78;3.47;;;;;;;4.37;55.43;98882.50;5085781;28;20524;-37
2023/03/21 04:42:14;;;;;;;8.57;3.47;;;;;;;4.52;55.54;98915.59;5088854;28;20645;-37
2023/03/21 04:44:40;;;;;;;9.52;3.70;;;;;;;4.54;55.50;98913.84;5087655;28;20044;-37
2023/03/21 04:47:07;;;;;;;10.20;3.03;;;;;;;4.48;55.52;98914.84;5072709;28;20479;-37
2023/03/21 04:49:33;;;;;;;9.82;3.85;;;;;;;4.47;55.40;98912.28;5088414;28;20046;-37
2023/03/21 04:51:59;;;;;;;7.50;3.00;;;;;;;4.49;55.27;98924.25;5087072;28;20042;-37
2023/03/21 04:54:26;;;;;;;8.77;3.83;;;;;;;4.49;55.51;98913.13;5072406;28;20059;-36
2023/03/21 04:56:52;;;;;;;12.32;4.00;;;;;;;4.55;55.27;98910.41;5089449;28;20040;-38
2023/03/21 04:59:18;;;;;;;10.50;4.20;;;;;;;4.63;55.34;98911.06;5088994;28;20123;-36
2023/03/21 05:01:45;;;;;;;7.60;3.85;;;;;;;4.68;55.29;98915.22;5071752;28;20039;-39
2023/03/21 05:04:12;;;;;;;8.25;4.00;;;;;;;4.72;55.02;98916.00;5090137;28;20154;-37
2023/03/21 05:06:41;;;;;;;8.15;3.75;;;;;;;4.62;54.88;98910.22;5068470;28;20349;-38
2023/03/21 05:09:07;;;;;;;8.30;3.47;;;;;;;4.56;55.26;98904.34;5073263;28;20043;-38
2023/03/21 05:11:36;;;;;;;7.85;3.60;;;;;;;4.61;55.31;98917.97;5100393;28;20040;-37
2023/03/21 05:14:04;;;;;;;11.75;3.58;;;;;;;4.57;55.14;98900.91;5036083;28;20045;-37
2023/03/21 05:16:30;;;;;;;9.25;4.10;;;;;;;4.50;55.52;98907.91;5088904;28;20040;-39
2023/03/21 05:19:02;;;;;;;7.70;3.63;;;;;;;4.43;55.52;98911.53;5094673;28;20059;-36
2023/03/21 05:21:33;;;;;;;7.53;3.72;;;;;;;4.22;55.36;98874.25;5085806;28;20048;-36
2023/03/21 05:24:02;;;;;;;10.45;3.70;;;;;;;4.38;55.27;98912.50;5075937;28;20036;-38
2023/03/21 05:26:29;;;;;;;8.80;4.07;;;;;;;4.36;55.27;98903.94;5085527;28;20069;-36
2023/03/21 05:29:07;;;;;;;8.52;3.10;;;;;;;4.33;55.33;98901.47;5072254;28;20156;-38
2023/03/21 05:31:34;;;;;;;9.45;3.92;;;;;;;4.41;55.13;98915.00;5069385;28;20083;-38
2023/03/21 05:34:06;;;;;;;6.30;3.33;;;;;;;4.43;55.07;98915.81;5090134;28;20048;-37
2023/03/21 05:36:34;;;;;;;9.32;3.75;;;;;;;4.43;55.32;98902.94;5095922;28;20042;-36
2023/03/21 05:39:04;;;;;;;10.82;3.75;;;;;;;4.51;55.12;98907.03;5089250;28;20082;-37
2023/03/21 05:41:33;;;;;;;14.40;3.55;;;;;;;4.72;55.02;98910.84;5084599;28;20056;-37
2023/03/21 05:44:02;;;;;;;;;;;;;;;4.69;54.97;98909.22;5080689;28;20036;-38
2023/03/21 05:46:28;;;;;;;8.88;3.38;;;;;;;4.72;54.54;98902.28;5070105;28;19916;-37
2023/03/21 05:48:54;;;;;;;11.88;3.42;;;;;;;4.83;54.09;98910.59;5087080;28;20583;-37
2023/03/21 05:51:22;;;;;;;8.93;4.30;;;;;;;4.88;54.31;98909.59;5090161;28;20051;-37
2023/03/21 05:53:48;;;;;;;10.40;3.53;;;;;;;4.92;53.93;98913.78;5068457;28;20062;-36
2023/03/21 05:56:15;;;;;;;11.30;3.42;;;;;;;4.97;54.58;98904.22;5085608;28;20119;-36
2023/03/21 05:59:10;;;;;;;10.40;3.42;;;;;;;4.98;54.05;98884.47;5085511;28;20043;-38
2023/03/21 06:01:41;;;;;;;8.20;3.40;;;;;;;5.22;54.66;98904.47;5054633;28;20055;-37
2023/03/21 06:04:13;;;;;;;10.35;3.83;;;;;;;5.18;54.57;98884.84;5085711;28;20037;-38
2023/03/21 06:06:39;;;;;;;7.15;3.92;;;;;;;5.43;54.30;98905.66;5084617;28;20070;-37
2023/03/21 06:09:05;;;;;;;7.95;3.88;;;;;;;5.52;54.26;98908.00;5088820;28;20150;-38
2023/03/21 06:11:34;;;;;;;10.48;4.10;;;;;;;5.51;54.43;98904.56;5084574;28;20047;-36
2023/03/21 06:14:16;;;;;;;9.80;3.88;;;;;;;5.45;54.88;98909.03;5084911;28;20457;-42
2023/03/21 06:16:44;;;;;;;9.32;3.38;;;;;;;5.59;55.20;98909.53;5067959;28;20052;-36
2023/03/21 06:19:11;;;;;;;11.25;3.83;;;;;;;5.57;54.95;98902.72;5069920;28;20043;-35
2023/03/21 06:21:55;;;;;;;9.73;4.10;;;;;;;5.42;55.04;98880.78;5051667;28;20040;-38
2023/03/21 06:24:20;;;;;;;9.07;4.07;;;;;;;5.53;56.02;98900.22;5076399;28;20044;-36
2023/03/21 06:26:47;;;;;;;9.77;4.22;;;;;;;5.59;56.31;98900.94;5082982;28;20044;-35
2023/03/21 06:29:13;;;;;;;7.80;3.97;;;;;;;5.65;55.93;98893.06;5068235;28;20534;-36
2023/03/21 06:31:45;;;;;;;8.68;4.03;;;;;;;5.77;55.99;98895.28;5085544;28;20052;-37
2023/03/21 06:34:11;;;;;;;9.73;3.97;;;;;;;6.03;55.81;98890.25;5102516;28;20530;-36
2023/03/21 06:36:38;;;;;;;8.13;3.83;;;;;;;6.10;55.30;98891.78;5098521;27;20044;-38
2023/03/21 06:39:06;;;;;;;8.82;3.83;;;;;;;5.93;55.83;98861.31;5085223;28;20036;-35
2023/03/21 06:41:32;;;;;;;9.32;3.83;;;;;;;6.22;56.11;98880.28;5083158;28;20105;-36
2023/03/21 06:44:03;;;;;;;12.10;4.68;;;;;;;6.29;55.79;98877.44;5085923;28;20039;-36
2023/03/21 06:46:34;;;;;;;9.23;4.07;;;;;;;6.29;55.96;98874.00;5051741;28;20127;-38
2023/03/21 06:49:01;;;;;;;6.25;3.92;;;;;;;6.33;56.71;98881.63;5067321;28;20477;-38
2023/03/21 06:51:29;;;;;;;9.18;4.55;;;;;;;6.52;55.91;98866.44;5051529;28;20037;-37
2023/03/21 06:54:08;;;;;;;11.35;4.63;;;;;;;6.80;55.73;98864.63;5067190;28;20068;-37
2023/03/21 06:56:39;;;;;;;11.65;3.85;;;;;;;6.91;55.76;98858.31;5084615;28;20476;-36
2023/03/21 06:59:09;;;;;;;10.05;4.10;;;;;;;7.30;54.78;98862.13;5084597;28;20127;-37
2023/03/21 07:02:09;;;;;;;7.60;4.22;;;;;;;7.77;54.63;98854.44;5060825;28;20040;-37
2023/03/21 07:04:40;;;;;;;8.15;4.13;;;;;;;8.55;52.99;98858.38;5068357;28;20040;-37
2023/03/21 07:07:12;;;;;;;8.88;4.20;;;;;;;8.87;52.20;98865.72;5084579;28;20040;-38
2023/03/21 07:09:39;;;;;;;10.35;4.57;;;;;;;9.26;51.54;98857.22;5068517;28;20040;-36
2023/03/21 07:12:05;;;;;;;9.20;4.25;;;;;;;9.92;50.86;98853.41;5066799;28;20036;-37
2023/03/21 07:15:03;;;;;;;9.30;4.22;;;;;;;9.58;51.00;98848.03;5084017;28;20135;-38
2023/03/21 07:17:30;;;;;;;9.10;4.18;;;;;;;9.26;51.70;98850.25;5067303;28;20040;-37
2023/03/21 07:19:56;;;;;;;7.00;4.07;;;;;;;9.20;51.96;98849.69;5084441;28;20431;-39
2023/03/21 07:22:22;;;;;;;6.00;3.33;;;;;;;8.96;52.44;98856.72;5067219;28;20044;-39
2023/03/21 07:24:48;;;;;;;8.80;3.92;;;;;;;8.80;53.47;98855.66;5073988;28;20854;-36
2023/03/21 07:27:16;;;;;;;11.82;4.32;;;;;;;8.58;54.39;98860.88;5055563;28;20063;-37
2023/03/21 07:29:43;;;;;;;8.98;4.28;;;;;;;8.65;54.40;98823.44;5088462;28;20040;-37
2023/03/21 07:32:10;;;;;;;7.38;4.40;;;;;;;8.67;54.96;98828.56;5088105;28;20130;-37
2023/03/21 07:34:36;;;;;;;11.63;4.80;;;;;;;8.56;55.48;98839.34;5066701;28;20056;-37
2023/03/21 07:37:04;;;;;;;9.40;4.10;;;;;;;8.69;56.43;98853.50;5060137;28;20051;-37
2023/03/21 07:39:31;;;;;;;10.30;4.65;;;;;;;8.64;56.11;98842.47;5096948;28;20047;-38
2023/03/21 07:41:58;;;;;;;9.53;5.10;;;;;;;8.26;57.82;98850.88;5069891;28;20066;-37
2023/03/21 07:44:36;;;;;;;9.85;4.75;;;;;;;8.06;58.48;98844.69;5087085;28;20100;-38
2023/03/21 07:47:04;;;;;;;9.07;4.50;;;;;;;8.29;58.68;98842.97;5079786;28;20040;-37
2023/03/21 07:49:30;;;;;;;8.73;4.38;;;;;;;8.34;58.52;98838.50;5083703;28;20043;-37
2023/03/21 07:51:58;;;;;;;9.75;4.63;;;;;;;8.17;59.30;98846.03;5073176;28;20495;-39
2023/03/21 07:54:25;;;;;;;10.43;5.15;;;;;;;7.88;59.70;98818.66;5087806;28;20044;-38
2023/03/21 07:56:50;;;;;;;12.50;5.22;;;;;;;7.85;60.37;98842.91;5083519;28;20119;-38
2023/03/21 07:59:16;;;;;;;12.35;4.82;;;;;;;8.03;60.31;98838.78;5080580;28;20131;-37
2023/03/21 08:01:42;;;;;;;9.27;5.15;;;;;;;7.84;60.49;98789.47;5088205;28;20047;-38
2023/03/21 08:04:08;;;;;;;8.93;4.72;;;;;;;8.29;60.24;98830.88;5088197;28;20075;-36
2023/03/21 08:06:34;;;;;;;6.60;3.47;;;;;;;8.25;60.55;98806.00;5066170;28;20137;-37
2023/03/21 08:09:02;;;;;;;9.07;4.25;;;;;;;8.50;60.77;98837.84;5067786;28;20514;-37
2023/03/21 08:11:30;;;;;;;9.88;3.78;;;;;;;8.48;60.68;98838.78;5067859;28;20492;-38
2023/03/21 08:13:57;;;;;;;8.98;4.32;;;;;;;8.22;61.51;98832.00;5049654;28;20147;-37
2023/03/21 08:16:23;;;;;;;6.75;4.20;;;;;;;8.23;62.40;98838.03;5066529;28;20040;-37
2023/03/21 08:18:49;;;;;;;5.13;3.25;;;;;;;8.12;62.68;98833.25;5067508;28;20040;-37
2023/03/21 08:21:15;;;;;;;7.05;3.88;;;;;;;7.82;62.75;98788.69;5083118;28;20060;-36
2023/03/21 08:23:41;;;;;;;7.05;3.75;;;;;;;7.91;63.19;98796.09;5070562;28;20033;-38
2023/03/21 08:26:08;;;;;;;8.40;3.75;;;;;;;8.26;63.03;98824.97;5067664;28;20048;-37
2023/03/21 08:28:35;;;;;;;6.93;3.60;;;;;;;8.52;62.81;98819.66;5067017;28;20064;-39
2023/03/21 08:31:07;;;;;;;7.53;4.45;;;;;;;8.46;62.77;98820.75;5067545;28;20095;-37
2023/03/21 08:33:33;;;;;;;5.47;3.22;;;;;;;8.03;63.09;98803.41;5076990;28;20032;-38
2023/03/21 08:35:59;;;;;;;7.35;3.53;;;;;;;8.08;63.97;98821.34;5087785;28;20038;-38
2023/03/21 08:38:28;;;;;;;6.72;3.60;;;;;;;8.29;63.70;98830.88;5067548;28;20538;-38
2023/03/21 08:40:55;;;;;;;7.97;3.90;;;;;;;8.44;63.90;98825.13;5067777;28;20217;-38
2023/03/21 08:43:22;;;;;;;7.03;3.22;;;;;;;8.36;64.15;98823.75;5049885;28;20137;-36
2023/03/21 08:45:48;;;;;;;6.93;3.42;;;;;;;8.38;64.82;98833.13;5067804;28;20040;-38
2023/03/21 08:48:14;;;;;;;4.88;2.55;;;;;;;8.26;65.62;98835.34;5066323;28;20048;-38
2023/03/21 08:50:40;;;;;;;7.80;3.30;;;;;;;8.04;66.31;98799.06;5065877;28;20055;-37
2023/03/21 08:53:06;;;;;;;5.18;2.40;;;;;;;8.39;66.10;98837.41;5067704;28;20041;-38
2023/03/21 08:55:33;;;;;;;4.50;2.88;;;;;;;8.24;65.28;98825.03;5066372;28;20130;-36
2023/03/21 08:57:59;;;;;;;4.45;2.80;;;;;;;8.23;65.39;98823.34;5065967;28;20052;-36
2023/03/21 09:00:26;;;;;;;7.30;3.47;;;;;;;8.31;64.82;98818.75;5083087;28;20037;-36
2023/03/21 09:02:53;;;;;;;4.70;3.05;;;;;;;8.61;64.54;98814.09;5067560;28;20041;-37
2023/03/21 09:05:20;;;;;;;4.65;2.75;;;;;;;8.69;63.88;98786.13;5049670;28;20032;-38
2023/03/21 09:07:46;;;;;;;8.38;3.97;;;;;;;9.05;63.21;98820.06;5068690;28;20044;-39
2023/03/21 09:10:16;;;;;;;4.82;3.03;;;;;;;9.11;63.07;98812.00;5087511;28;20146;-36
2023/03/21 09:12:42;;;;;;;5.28;3.05;;;;;;;9.33;62.64;98805.00;5069096;28;20040;-37
2023/03/21 09:15:09;;;;;;;4.07;2.33;;;;;;;9.28;62.11;98813.88;5087390;28;20042;-37
2023/03/21 09:17:35;;;;;;;6.28;3.13;;;;;;;9.18;61.82;98812.59;5084707;28;20101;-37
2023/03/21 09:20:10;;;;;;;6.05;3.67;;;;;;;8.90;62.26;98803.38;5070527;28;20084;-38
2023/03/21 09:22:39;;;;;;;7.05;4.30;;;;;;;8.99;62.15;98804.75;5068449;28;20047;-38
2023/03/21 09:25:07;;;;;;;9.65;4.30;;;;;;;9.28;61.68;98806.09;5089617;28;20113;-37
2023/03/21 09:27:33;;;;;;;7.60;4.05;;;;;;;9.33;61.27;98799.81;5091019;28;20170;-36
2023/03/21 09:30:00;;;;;;;9.68;4.70;;;;;;;9.26;61.36;98793.19;5072069;28;20144;-38
2023/03/21 09:32:27;;;;;;;15.50;5.38;;;;;;;9.41;60.44;98796.03;5086059;28;20040;-37
2023/03/21 09:34:54;;;;;;;10.15;4.95;;;;;;;9.62;60.47;98789.91;5087070;28;20160;-38
2023/03/21 09:37:20;;;;;;;7.43;4.60;;;;;;;9.82;59.55;98765.66;5089528;28;20086;-37
2023/03/21 09:39:48;;;;;;;7.47;4.03;;;;;;;10.35;58.20;98782.19;5075864;28;20052;-38
2023/03/21 09:42:54;;;;;;;8.05;4.68;;;;;;;10.43;57.56;98772.25;5068841;28;20052;-37
2023/03/21 09:45:59;;;;;;;7.20;4.63;;;;;;;11.39;56.09;98788.25;5052502;28;20047;-37
2023/03/21 09:48:50;;;;;;;8.20;4.95;;;;;;;11.75;54.31;98781.13;5067594;28;20052;-38
2023/03/21 09:51:17;;;;;;;8.52;4.80;;;;;;;12.15;52.87;98784.16;5044682;28;20049;-37
2023/03/21 09:53:47;;;;;;;11.40;5.22;;;;;;;12.71;52.12;98783.59;5068870;28;20036;-37
2023/03/21 09:56:14;;;;;;;8.23;5.22;;;;;;;13.42;50.68;98779.38;5069105;28;20256;-39
2023/03/21 09:58:53;;;;;;;9.52;5.60;;;;;;;14.19;48.51;98781.53;5068466;28;20036;-38
2023/03/21 10:01:34;;;;;;;11.15;5.53;;;;;;;14.04;47.76;98779.91;5068689;28;20508;-36
2023/03/21 10:04:05;;;;;;;10.65;6.30;;;;;;;14.24;47.06;98763.78;5037024;28;20075;-37
2023/03/21 10:06:34;;;;;;;9.05;5.65;;;;;;;13.91;47.26;98773.78;5068660;28;20040;-38
2023/03/21 10:09:14;;;;;;;10.73;5.55;;;;;;;13.53;47.68;98771.75;5069566;28;20036;-37
2023/03/21 10:11:51;;;;;;;7.85;4.80;;;;;;;13.62;47.59;98757.28;5080457;28;20052;-38
2023/03/21 10:14:28;;;;;;;8.77;5.72;;;;;;;14.19;47.09;98760.63;5088494;28;20043;-38
2023/03/21 10:16:59;;;;;;;9.38;5.47;;;;;;;15.06;45.09;98754.97;5089960;28;20051;-38
2023/03/21 10:19:26;;;;;;;10.15;5.63;;;;;;;15.23;44.03;98746.78;5081875;28;20565;-37
2023/03/21 10:21:53;;;;;;;10.48;5.65;;;;;;;15.88;43.12;98751.88;5069611;28;20040;-37
2023/03/21 10:24:24;;;;;;;9.93;5.28;;;;;;;16.18;42.34;98752.31;5097735;28;20389;-38
2023/03/21 10:26:52;;;;;;;8.77;5.53;;;;;;;16.51;41.68;98749.88;5071247;28;20040;-37
2023/03/21 10:29:21;;;;;;;9.77;6.05;;;;;;;16.80;40.79;98715.44;5081524;28;20060;-40
2023/03/21 10:31:47;;;;;;;9.27;5.38;;;;;;;17.21;40.38;98746.44;5067439;28;20048;-38
2023/03/21 10:34:18;;;;;;;8.30;5.80;;;;;;;17.84;38.86;98739.78;5080225;28;20084;-38
2023/03/21 10:36:44;;;;;;;7.32;5.18;;;;;;;17.35;39.17;98727.81;5087562;28;20043;-37
2023/03/21 10:39:26;;;;;;;9.43;5.25;;;;;;;18.61;37.75;98729.09;5085749;28;20098;-37
2023/03/21 10:41:52;;;;;;;8.15;4.38;;;;;;;20.40;34.69;98733.84;5067502;28;20488;-37
2023/03/21 10:44:19;;;;;;;7.43;4.68;;;;;;;18.80;35.17;98693.31;5068075;28;20033;-37
2023/03/21 10:46:56;;;;;;;6.38;4.53;;;;;;;17.72;36.59;98683.75;5068007;28;20036;-38
2023/03/21 10:49:24;;;;;;;6.38;4.53;;;;;;;17.75;36.68;98726.41;5068862;28;20048;-38
2023/03/21 10:51:52;;;;;;;8.02;4.85;;;;;;;18.15;36.69;98720.59;5068751;28;20221;-37
2023/03/21 10:54:20;;;;;;;6.87;4.43;;;;;;;20.14;34.00;98722.09;5067683;28;20072;-38
2023/03/21 10:56:56;;;;;;;9.00;4.57;;;;;;;20.40;32.60;98723.28;5067638;28;20337;-38
2023/03/21 10:59:23;;;;;;;6.63;4.55;;;;;;;20.34;32.58;98729.09;5084612;28;20044;-38
2023/03/21 11:01:51;;;;;;;5.97;4.15;;;;;;;19.74;32.55;98722.13;5067504;28;20044;-38
2023/03/21 11:04:20;;;;;;;4.85;3.72;;;;;;;18.99;33.64;98730.34;5082209;28;20039;-38
2023/03/21 11:07:13;;;;;;;7.13;4.30;;;;;;;18.87;33.74;98712.91;5071269;28;20068;-38
2023/03/21 11:09:47;;;;;;;6.25;3.08;;;;;;;18.81;33.12;98719.53;5079045;28;20131;-38
2023/03/21 11:12:17;;;;;;;5.00;3.05;;;;;;;18.57;33.18;98711.03;5066632;28;20044;-37
2023/03/21 11:14:48;;;;;;;5.00;3.50;;;;;;;19.79;31.50;98696.16;5067185;28;20051;-37
2023/03/21 11:17:17;;;;;;;4.72;3.70;;;;;;;20.62;30.66;98704.50;5066966;28;20058;-37
2023/03/21 11:19:57;;;;;;;6.75;3.95;;;;;;;21.22;29.70;98712.25;5084014;28;20059;-36
2023/03/21 11:22:29;;;;;;;7.10;4.75;;;;;;;21.98;28.92;98697.88;5066953;28;20033;-38
2023/03/21 11:24:59;;;;;;;6.85;4.30;;;;;;;22.56;28.51;98700.13;5084782;28;20040;-38
2023/03/21 11:27:28;;;;;;;8.73;4.68;;;;;;;23.20;27.58;98665.31;5070674;28;20422;-37
2023/03/21 11:29:56;;;;;;;6.82;4.50;;;;;;;23.82;26.53;98703.94;5069869;28;20196;-38
2023/03/21 11:32:24;;;;;;;6.50;4.10;;;;;;;22.56;27.24;98690.34;5088367;28;20035;-39
2023/03/21 11:34:56;;;;;;;5.10;3.72;;;;;;;22.81;26.74;98670.22;5081913;28;20044;-41
2023/03/21 11:37:29;;;;;;;4.30;3.58;;;;;;;22.30;27.01;98695.56;5070396;28;20047;-38
2023/03/21 11:40:17;;;;;;;6.50;3.97;;;;;;;21.90;27.38;98689.81;5084133;28;20075;-37
2023/03/21 11:42:46;;;;;;;4.22;3.00;;;;;;;21.32;27.20;98684.78;5083057;28;20094;-38
2023/03/21 11:45:16;;;;;;;6.97;3.33;;;;;;;19.75;28.63;98690.34;5083799;28;20040;-37
2023/03/21 11:47:42;;;;;;;7.75;3.92;;;;;;;19.53;29.43;98689.69;5068171;28;20132;-38
2023/03/21 11:50:32;;;;;;;7.03;4.10;;;;;;;19.92;29.03;98685.38;5067552;28;20141;-37
2023/03/21 11:53:10;;;;;;;7.22;3.00;;;;;;;20.92;27.50;98685.03;5083642;28;20041;-38
2023/03/21 11:55:39;;;;;;;4.65;2.97;;;;;;;20.98;26.56;98681.81;5068182;28;20063;-38
2023/03/21 11:58:23;;;;;;;5.10;3.00;;;;;;;20.48;26.88;98667.97;5068115;28;20043;-37